Flight Track Log - Related Links

Times and Time Zones

All times are in EDT time to prevent confusion due to time zone crossing. See the UPS1075 flight status page for this flight to view local times or setup timezone preferences in your user account.

Time Position Orientation Groundspeed Altitude Reporting Facility
EDT Latitude Longitude Course Direction KTS MPH feet Rate Location/Type
Thu 10:47:10 PM 40.6841 -74.1739 217° Southwest 161 185 200  Level FlightAware ADS-B
Thu 10:47:21 PM 40.6766 -74.1784 204° Southwest 160 184 700 2,182 Climbing FlightAware ADS-B
Thu 10:47:32 PM 40.6690 -74.1824 202° Southwest 171 197 1,000 1,579 Climbing FlightAware ADS-B
Thu 10:47:40 PM 40.6625 -74.1850 197° South 186 214 1,200 1,440 Climbing FlightAware ADS-B
Thu 10:47:57 PM 40.6477 -74.1902 195° South 192 221 1,600 1,826 Climbing FlightAware ADS-B
Thu 10:48:03 PM 40.6428 -74.1943 212° Southwest 203 234 1,900 2,769 Climbing FlightAware ADS-B
Thu 10:48:10 PM 40.6381 -74.2008 226° Southwest 202 232 2,200 2,727 Climbing FlightAware ADS-B
Thu 10:48:14 PM 40.6365 -74.2042 238° Southwest 202 232 2,400 2,500 Climbing FlightAware ADS-B
Thu 10:48:22 PM 40.6339 -74.2137 250° West 203 234 2,700 2,400 Climbing FlightAware ADS-B
Thu 10:48:29 PM 40.6334 -74.2226 266° West 205 236 3,000 2,800 Climbing FlightAware ADS-B
Thu 10:48:37 PM 40.6349 -74.2324 281° West 207 238 3,400 2,800 Climbing FlightAware ADS-B
Thu 10:48:44 PM 40.6378 -74.2400 297° West 211 243 3,700 2,400 Climbing FlightAware ADS-B
Thu 10:48:47 PM 40.6398 -74.2439 304° West 218 251 3,800 1,286 Climbing FlightAware ADS-B
Thu 10:48:58 PM 40.6475 -74.2557 311° West 236 272 4,000 1,385 Climbing FlightAware ADS-B
Thu 10:49:13 PM 40.6605 -74.2697 321° Northwest 253 291 4,400 1,909 Climbing FlightAware ADS-B
Thu 10:49:20 PM 40.6675 -74.2755 328° Northwest 257 296 4,700 2,769 Climbing FlightAware ADS-B
Thu 10:49:52 PM 40.7004 -74.3046 326° Northwest 263 303 6,200 2,816 Climbing FlightAware ADS-B
Thu 10:50:09 PM 40.7162 -74.3207 322° Northwest 269 310 7,000 2,897 Climbing FlightAware ADS-B
Thu 10:50:21 PM 40.7286 -74.3326 324° Northwest 271 312 7,600 2,889 Climbing FlightAware ADS-B
Thu 10:50:36 PM 40.7445 -74.3467 326° Northwest 273 314 8,300 2,903 Climbing FlightAware ADS-B
Thu 10:50:52 PM 40.7615 -74.3616 326° Northwest 277 319 9,100 2,857 Climbing FlightAware ADS-B
Thu 10:50:57 PM 40.7668 -74.3664 326° Northwest 279 321 9,300 2,455 Climbing FlightAware ADS-B
Thu 10:51:14 PM 40.7848 -74.3830 325° Northwest 280 322 10,000 2,053 Climbing FlightAware ADS-B
Thu 10:51:35 PM 40.8087 -74.4052 325° Northwest 301 346 10,600 1,220 Climbing FlightAware ADS-B
Thu 10:52:13 PM 40.8550 -74.4470 326° Northwest 344 396 11,200 1,021 Climbing FlightAware ADS-B
Thu 10:52:22 PM 40.8677 -74.4587 325° Northwest 352 405 11,400 1,902 Climbing FlightAware ADS-B
Thu 10:52:54 PM 40.9118 -74.4977 326° Northwest 361 415 12,500 2,188 Climbing FlightAware ADS-B
Thu 10:53:58 PM 41.0030 -74.5760 327° Northwest 375 432 14,900 2,082 Climbing FlightAware ADS-B
Thu 10:54:32 PM 41.0490 -74.6170 326° Northwest 383 441 15,900 2,000 Climbing FlightAware ADS-B
Thu 10:55:07 PM 41.1040 -74.6670 326° Northwest 387 445 17,200 2,118 Climbing FlightAware ADS-B
Thu 10:55:23 PM 41.1270 -74.6890 324° Northwest 388 447 17,700 1,941 Climbing FlightAware ADS-B
Thu 10:55:41 PM 41.1480 -74.7230 309° West 385 443 18,300 1,889 Climbing FlightAware ADS-B
Thu 10:56:17 PM 41.1790 -74.7920 301° West 389 448 19,400 1,750 Climbing FlightAware ADS-B
Thu 10:56:53 PM 41.2130 -74.8710 300° West 396 456 20,400 1,652 Climbing FlightAware ADS-B
Thu 10:57:26 PM 41.2440 -74.9430 300° West 403 464 21,300 1,521 Climbing FlightAware ADS-B
Thu 10:58:04 PM 41.2800 -75.0250 300° West 408 470 22,200 1,606 Climbing FlightAware ADS-B
Thu 10:58:37 PM 41.3100 -75.0960 299° West 411 473 23,200 1,739 Climbing FlightAware ADS-B
Thu 10:59:13 PM 41.3440 -75.1730 300° West 414 476 24,200 1,833 Climbing FlightAware ADS-B
Thu 10:59:49 PM 41.3800 -75.2570 300° West 418 481 25,400 1,909 Climbing FlightAware ADS-B
Thu 11:00:19 PM 41.4080 -75.3230 300° West 420 483 26,300 1,652 Climbing FlightAware ADS-B
Thu 11:00:58 PM 41.4470 -75.4130 300° West 426 490 27,300 1,520 Climbing FlightAware ADS-B
Thu 11:01:34 PM 41.4800 -75.5000 297° West 434 499 28,200 1,437 Climbing FlightAware ADS-B
Thu 11:02:09 PM 41.5050 -75.5850 291° West 438 504 29,000 1,324 Climbing FlightAware ADS-B
Thu 11:02:42 PM 41.5220 -75.6690 285° West 442 509 29,700 1,412 Climbing FlightAware ADS-B
Thu 11:03:17 PM 41.5340 -75.7680 279° West 442 509 30,600 1,726 Climbing FlightAware ADS-B
Thu 11:03:55 PM 41.5450 -75.8660 279° West 435 501 31,800 1,800 Climbing FlightAware ADS-B
Thu 11:04:27 PM 41.5540 -75.9520 278° West 433 498 32,700 1,500 Climbing FlightAware ADS-B
Thu 11:05:03 PM 41.5650 -76.0450 279° West 433 498 33,500 1,350 Climbing FlightAware ADS-B
Thu 11:05:47 PM 41.5780 -76.1660 278° West 432 497 34,500 1,286 Climbing FlightAware ADS-B
Thu 11:06:13 PM 41.5850 -76.2330 278° West 432 497 35,000 1,235 Climbing FlightAware ADS-B
Thu 11:06:55 PM 41.5960 -76.3480 277° West 429 494 35,900 789 Climbing FlightAware ADS-B
Thu 11:07:29 PM 41.6060 -76.4350 279° West 422 486 36,000 87 Climbing FlightAware ADS-B
Thu 11:08:04 PM 41.6150 -76.5260 278° West 419 482 36,000  Level FlightAware ADS-B
Thu 11:08:37 PM 41.6240 -76.6110 278° West 423 487 36,000  Level FlightAware ADS-B
Thu 11:09:13 PM 41.6320 -76.6930 277° West 427 491 36,000  Level FlightAware ADS-B
Thu 11:09:48 PM 41.6420 -76.7870 278° West 430 495 36,000  Level FlightAware ADS-B
Thu 11:10:23 PM 41.6510 -76.8800 277° West 433 498 36,000  Level FlightAware ADS-B
Thu 11:10:58 PM 41.6600 -76.9700 278° West 434 499 36,000  Level FlightAware ADS-B
Thu 11:11:34 PM 41.6700 -77.0690 278° West 433 498 36,000  Level FlightAware ADS-B
Thu 11:12:09 PM 41.6790 -77.1570 278° West 433 498 36,000  Level FlightAware ADS-B
Thu 11:12:43 PM 41.6880 -77.2530 277° West 432 497 36,000  Level FlightAware ADS-B
Thu 11:13:18 PM 41.6970 -77.3480 277° West 431 496 36,000  Level FlightAware ADS-B
Thu 11:13:53 PM 41.7060 -77.4390 278° West 430 495 36,000  Level FlightAware ADS-B
Thu 11:14:28 PM 41.7150 -77.5330 277° West 428 493 36,000  Level FlightAware ADS-B
Thu 11:15:03 PM 41.7240 -77.6250 277° West 427 491 36,000  Level FlightAware ADS-B
Thu 11:15:33 PM 41.7310 -77.7020 277° West 425 489 36,000  Level FlightAware ADS-B
Thu 11:16:14 PM 41.7410 -77.8050 277° West 423 487 36,000  Level FlightAware ADS-B
Thu 11:16:48 PM 41.7490 -77.8960 277° West 421 484 36,000  Level FlightAware ADS-B
Thu 11:17:23 PM 41.7570 -77.9880 277° West 418 481 36,000  Level FlightAware ADS-B
Thu 11:17:58 PM 41.7660 -78.0780 278° West 417 480 36,000  Level FlightAware ADS-B
Thu 11:18:33 PM 41.7730 -78.1660 276° West 416 479 36,000  Level FlightAware ADS-B
Thu 11:19:08 PM 41.7810 -78.2580 277° West 416 479 36,000  Level FlightAware ADS-B
Thu 11:19:43 PM 41.7890 -78.3490 277° West 415 478 36,000  Level FlightAware ADS-B
Thu 11:20:18 PM 41.7960 -78.4350 276° West 415 478 36,000  Level FlightAware ADS-B
Thu 11:20:53 PM 41.8040 -78.5270 277° West 414 476 36,000  Level FlightAware ADS-B
Thu 11:21:28 PM 41.8120 -78.6140 277° West 414 476 36,000  Level FlightAware ADS-B
Thu 11:22:03 PM 41.8190 -78.7050 276° West 414 476 36,000  Level FlightAware ADS-B
Thu 11:22:38 PM 41.8270 -78.7940 277° West 415 478 36,000  Level FlightAware ADS-B
Thu 11:23:13 PM 41.8350 -78.8850 277° West 415 478 36,000  Level FlightAware ADS-B
Thu 11:23:48 PM 41.8420 -78.9730 276° West 416 479 36,000  Level FlightAware ADS-B
Thu 11:24:23 PM 41.8490 -79.0650 276° West 416 479 36,000  Level FlightAware ADS-B
Thu 11:24:58 PM 41.8560 -79.1550 276° West 417 480 36,000  Level FlightAware ADS-B
Thu 11:25:33 PM 41.8630 -79.2440 276° West 417 480 36,000  Level FlightAware ADS-B
Thu 11:26:08 PM 41.8700 -79.3340 276° West 418 481 36,000  Level FlightAware ADS-B
Thu 11:26:48 PM 41.8780 -79.4390 276° West 419 482 36,000  Level FlightAware ADS-B
Thu 11:27:23 PM 41.8850 -79.5290 276° West 420 483 36,000  Level FlightAware ADS-B
Thu 11:27:58 PM 41.8920 -79.6190 276° West 419 482 36,000  Level FlightAware ADS-B
Thu 11:28:38 PM 41.9000 -79.7230 276° West 420 483 36,000  Level FlightAware ADS-B
Thu 11:29:13 PM 41.9060 -79.8140 275° West 420 483 36,000  Level FlightAware ADS-B
Thu 11:29:44 PM 41.9120 -79.8900 276° West 420 483 36,000  Level FlightAware ADS-B
Thu 11:30:23 PM 41.9190 -79.9970 275° West 420 483 36,000  Level FlightAware ADS-B
Thu 11:30:58 PM 41.9250 -80.0870 275° West 421 484 36,000  Level FlightAware ADS-B
Thu 11:31:33 PM 41.9320 -80.1800 276° West 424 488 36,000  Level FlightAware ADS-B
Thu 11:32:08 PM 41.9390 -80.2720 276° West 424 488 36,000  Level FlightAware ADS-B
Thu 11:32:48 PM 41.9460 -80.3740 275° West 424 488 36,000  Level FlightAware ADS-B
Thu 11:33:28 PM 41.9540 -80.4820 276° West 424 488 36,000  Level FlightAware ADS-B
Thu 11:33:58 PM 41.9600 -80.5620 276° West 424 488 36,000  Level FlightAware ADS-B
Thu 11:34:33 PM 41.9660 -80.6530 275° West 423 487 36,000  Level FlightAware ADS-B
Thu 11:35:08 PM 41.9720 -80.7440 275° West 424 488 36,000  Level FlightAware ADS-B
Thu 11:35:48 PM 41.9790 -80.8490 275° West 424 488 36,000  Level FlightAware ADS-B
Thu 11:36:19 PM 41.9850 -80.9310 276° West 425 489 36,000  Level FlightAware ADS-B
Thu 11:36:53 PM 41.9910 -81.0210 275° West 426 490 36,000  Level FlightAware ADS-B
Thu 11:37:28 PM 41.9960 -81.1140 274° West 426 490 36,000  Level FlightAware ADS-B
Thu 11:38:08 PM 42.0030 -81.2210 275° West 426 490 36,000  Level FlightAware ADS-B
Thu 11:38:38 PM 42.0080 -81.2950 275° West 426 490 36,000  Level FlightAware ADS-B
Thu 11:39:16 PM 42.0160 -81.4120 275° West 427 491 36,000  Level FlightAware ADS-B
Thu 11:39:52 PM 42.0210 -81.5060 274° West 426 490 36,000  Level FlightAware ADS-B
Thu 11:40:28 PM 42.0270 -81.6030 275° West 425 489 36,000  Level FlightAware ADS-B
Thu 11:41:00 PM 42.0320 -81.6840 275° West 425 489 36,000  Level FlightAware ADS-B
Thu 11:41:36 PM 42.0380 -81.7800 275° West 425 489 36,000  Level FlightAware ADS-B
Thu 11:42:12 PM 42.0430 -81.8760 274° West 426 490 36,000  Level FlightAware ADS-B
Thu 11:42:44 PM 42.0480 -81.9620 275° West 426 490 36,000  Level FlightAware ADS-B
Thu 11:43:12 PM 42.0520 -82.0340 274° West 427 491 36,000  Level FlightAware ADS-B
Thu 11:43:48 PM 42.0570 -82.1270 274° West 427 491 36,000  Level FlightAware ADS-B
Thu 11:44:23 PM 42.0620 -82.2180 274° West 427 491 36,000  Level FlightAware ADS-B
Thu 11:44:57 PM 42.0670 -82.3150 274° West 428 493 36,000  Level FlightAware ADS-B
Thu 11:45:34 PM 42.0720 -82.4080 274° West 427 491 36,000  Level FlightAware ADS-B
Thu 11:46:10 PM 42.0770 -82.5070 274° West 428 493 36,000  Level FlightAware ADS-B
Thu 11:46:46 PM 42.0820 -82.6030 274° West 429 494 36,000  Level FlightAware ADS-B
Thu 11:47:16 PM 42.0860 -82.6840 274° West 429 494 36,000  Level FlightAware ADS-B
Thu 11:47:52 PM 42.0910 -82.7810 274° West 429 494 36,000  Level FlightAware ADS-B
Thu 11:48:30 PM 42.0960 -82.8830 274° West 428 493 36,000  Level FlightAware ADS-B
Thu 11:49:06 PM 42.1000 -82.9780 273° West 428 493 36,000  Level FlightAware ADS-B
Thu 11:49:37 PM 42.1040 -83.0600 274° West 427 491 36,000  Level FlightAware ADS-B
Thu 11:50:14 PM 42.1090 -83.1590 274° West 427 491 36,000  Level FlightAware ADS-B
Thu 11:50:48 PM 42.1130 -83.2500 273° West 424 488 36,000  Level FlightAware ADS-B
Thu 11:51:26 PM 42.1180 -83.3480 274° West 419 482 36,000  Level FlightAware ADS-B
Thu 11:51:58 PM 42.1220 -83.4320 274° West 416 479 36,000  Level FlightAware ADS-B
Thu 11:52:34 PM 42.1270 -83.5260 274° West 413 475 36,000  Level FlightAware ADS-B
Thu 11:53:10 PM 42.1310 -83.6180 273° West 411 473 36,000  Level FlightAware ADS-B
Thu 11:53:46 PM 42.1340 -83.7080 273° West 408 470 36,000  Level FlightAware ADS-B
Thu 11:54:22 PM 42.1370 -83.8000 273° West 405 466 36,000  Level FlightAware ADS-B
Thu 11:54:58 PM 42.1400 -83.8930 273° West 403 464 36,000  Level FlightAware ADS-B
Thu 11:55:27 PM 42.1420 -83.9610 272° West 403 464 36,000  Level FlightAware ADS-B
Thu 11:56:07 PM 42.1450 -84.0610 272° West 402 463 36,000  Level FlightAware ADS-B
Thu 11:56:43 PM 42.1480 -84.1560 272° West 402 463 36,000  Level FlightAware ADS-B
Thu 11:57:13 PM 42.1510 -84.2300 273° West 402 463 36,000  Level FlightAware ADS-B
Thu 11:57:51 PM 42.1540 -84.3210 273° West 403 464 36,000  Level FlightAware ADS-B
Thu 11:58:32 PM 42.1570 -84.4270 272° West 402 463 36,000  Level FlightAware ADS-B
Thu 11:59:07 PM 42.1600 -84.5120 273° West 402 463 36,000  Level FlightAware ADS-B
Thu 11:59:43 PM 42.1620 -84.6020 272° West 402 463 36,000  Level FlightAware ADS-B
Fri 12:00:17 AM 42.1640 -84.6880 272° West 402 463 36,000  Level FlightAware ADS-B
Fri 12:00:50 AM 42.1670 -84.7750 273° West 403 464 36,000  Level FlightAware ADS-B
Fri 12:01:29 AM 42.1690 -84.8640 272° West 403 464 36,000  Level FlightAware ADS-B
Fri 12:02:01 AM 42.1700 -84.9490 271° West 405 466 36,000  Level FlightAware ADS-B
Fri 12:02:37 AM 42.1730 -85.0440 272° West 407 468 36,000  Level FlightAware ADS-B
Fri 12:03:08 AM 42.1750 -85.1200 272° West 409 471 36,000  Level FlightAware ADS-B
Fri 12:03:48 AM 42.1770 -85.2250 272° West 410 472 36,000  Level FlightAware ADS-B
Fri 12:04:22 AM 42.1790 -85.3110 272° West 411 473 36,000  Level FlightAware ADS-B
Fri 12:04:54 AM 42.1810 -85.3930 272° West 412 474 36,000  Level FlightAware ADS-B
Fri 12:05:32 AM 42.1830 -85.4930 272° West 413 475 36,000  Level FlightAware ADS-B
Fri 12:06:01 AM 42.1850 -85.5670 272° West 414 476 36,000  Level FlightAware ADS-B
Fri 12:06:34 AM 42.1860 -85.6510 271° West 415 478 36,000  Level FlightAware ADS-B
Fri 12:07:12 AM 42.1880 -85.7500 272° West 417 480 36,000  Level FlightAware ADS-B
Fri 12:07:46 AM 42.1900 -85.8400 272° West 417 480 36,000  Level FlightAware ADS-B
Fri 12:08:20 AM 42.1920 -85.9260 272° West 416 479 36,000  Level FlightAware ADS-B
Fri 12:08:56 AM 42.1930 -86.0200 271° West 415 478 36,000  Level FlightAware ADS-B
Fri 12:09:32 AM 42.1950 -86.1170 272° West 413 475 36,000  Level FlightAware ADS-B
Fri 12:10:08 AM 42.1960 -86.2060 271° West 413 475 36,000  Level FlightAware ADS-B
Fri 12:10:40 AM 42.1970 -86.2900 271° West 412 474 36,000  Level FlightAware ADS-B
Fri 12:11:23 AM 42.1980 -86.4030 271° West 411 473 36,000  Level FlightAware ADS-B
Fri 12:11:59 AM 42.1990 -86.4970 271° West 410 472 36,000  Level FlightAware ADS-B
Fri 12:12:32 AM 42.1990 -86.5810 270° West 413 475 36,000 -261 Level FlightAware ADS-B
Fri 12:13:08 AM 42.2000 -86.6740 271° West 407 468 35,700 -1,500 Descending FlightAware ADS-B
Fri 12:13:44 AM 42.2010 -86.7640 271° West 410 472 34,200 -2,647 Descending FlightAware ADS-B
Fri 12:14:16 AM 42.2010 -86.8440 270° West 412 474 32,700 -2,609 Descending FlightAware ADS-B
Fri 12:14:53 AM 42.2020 -86.9410 271° West 408 470 31,200 -2,366 Descending FlightAware ADS-B
Fri 12:15:27 AM 42.2020 -87.0260 270° West 403 464 29,900 -2,282 Descending FlightAware ADS-B
Fri 12:16:04 AM 42.2030 -87.1180 271° West 399 459 28,500 -2,328 Descending FlightAware ADS-B
Fri 12:16:34 AM 42.2030 -87.1950 270° West 394 453 27,300 -2,418 Descending FlightAware ADS-B
Fri 12:17:11 AM 42.2040 -87.2840 271° West 391 450 25,800 -2,400 Descending FlightAware ADS-B
Fri 12:17:44 AM 42.2040 -87.3600 270° West 388 447 24,500 -1,459 Descending FlightAware ADS-B
Fri 12:18:25 AM 42.2040 -87.4650 270° West 393 452 24,000 -417 Descending FlightAware ADS-B
Fri 12:18:56 AM 42.2040 -87.5370 270° West 393 452 24,000  Level FlightAware ADS-B
Fri 12:19:33 AM 42.2040 -87.6340 270° West 396 456 24,000 -686 Level FlightAware ADS-B
Fri 12:20:06 AM 42.2040 -87.7160 270° West 397 457 23,200 -2,400 Descending FlightAware ADS-B
Fri 12:20:43 AM 42.2040 -87.8080 270° West 404 465 21,200 -3,250 Descending FlightAware ADS-B
Fri 12:21:18 AM 42.2040 -87.8980 270° West 404 465 19,300 -3,000 Descending FlightAware ADS-B
Fri 12:21:53 AM 42.2040 -87.9840 270° West 399 459 17,700 -2,735 Descending FlightAware ADS-B
Fri 12:22:26 AM 42.2030 -88.0690 269° West 392 451 16,200 -2,870 Descending FlightAware ADS-B
Fri 12:23:02 AM 42.2030 -88.1560 270° West 390 449 14,400 -2,958 Descending FlightAware ADS-B
Fri 12:23:37 AM 42.2030 -88.2400 270° West 384 442 12,700 -2,620 Descending FlightAware ADS-B
Fri 12:24:13 AM 42.2020 -88.3250 269° West 372 428 11,300 -1,437 Descending FlightAware ADS-B
Fri 12:24:48 AM 42.2020 -88.4030 270° West 332 382 11,000 -261 Descending FlightAware ADS-B
Fri 12:25:22 AM 42.2020 -88.4690 270° West 292 336 11,000  Level FlightAware ADS-B
Fri 12:26:00 AM 42.2010 -88.5350 269° West 275 316 11,000 -86 Level FlightAware ADS-B
Fri 12:26:32 AM 42.2010 -88.5900 270° West 270 311 10,900 -1,200 Descending FlightAware ADS-B
Fri 12:27:00 AM 42.2000 -88.6350 268° West 264 304 9,800 -2,318 Descending FlightAware ADS-B
Fri 12:27:16 AM 42.2010 -88.6600 273° West 261 300 9,200 -2,250 Descending FlightAware ADS-B
Fri 12:27:24 AM 42.2040 -88.6740 286° West 262 302 8,900 -2,000 Descending FlightAware ADS-B
Fri 12:27:28 AM 42.2060 -88.6800 294° West 261 300 8,800 -2,357 Descending FlightAware ADS-B
Fri 12:27:52 AM 42.2220 -88.7130 303° West 262 302 7,800 -2,455 Descending FlightAware ADS-B
Fri 12:28:12 AM 42.2370 -88.7410 306° West 262 302 7,000 -2,438 Descending FlightAware ADS-B
Fri 12:28:24 AM 42.2450 -88.7560 306° West 262 302 6,500 -2,323 Descending FlightAware ADS-B
Fri 12:28:43 AM 42.2580 -88.7810 305° West 262 302 5,800 -2,318 Descending FlightAware ADS-B
Fri 12:29:08 AM 42.2750 -88.8150 304° West 257 296 4,800 -1,867 Descending FlightAware ADS-B
Fri 12:29:28 AM 42.2870 -88.8420 301° West 227 261 4,400 -1,448 Descending FlightAware ADS-B
Fri 12:29:37 AM 42.2880 -88.8530 277° West 208 239 4,100 -1,800 Descending FlightAware ADS-B
Fri 12:29:48 AM 42.2850 -88.8660 253° West 190 219 3,800 -1,500 Descending FlightAware ADS-B
Fri 12:29:57 AM 42.2810 -88.8740 236° Southwest 182 209 3,600 -1,429 Descending FlightAware ADS-B
Fri 12:30:09 AM 42.2750 -88.8850 234° Southwest 171 197 3,300 -686 Descending FlightAware ADS-B
Fri 12:30:32 AM 42.2670 -88.9060 243° Southwest 146 168 3,200 -140 Descending FlightAware ADS-B
Fri 12:30:52 AM 42.2610 -88.9210 242° Southwest 140 161 3,200 -300 Level FlightAware ADS-B
Fri 12:31:12 AM 42.2550 -88.9370 243° Southwest 143 165 3,000 -439 Descending FlightAware ADS-B
Fri 12:31:33 AM 42.2490 -88.9520 242° Southwest 122 140 2,900 -316 Descending FlightAware ADS-B
Fri 12:31:50 AM 42.2450 -88.9630 244° Southwest 107 123 2,800 -649 Descending FlightAware ADS-B
Fri 12:32:10 AM 42.2410 -88.9750 246° West 103 119 2,500 -732 Descending FlightAware ADS-B
Fri 12:32:31 AM 42.2360 -88.9860 238° Southwest 101 116 2,300 -600 Descending FlightAware ADS-B
Fri 12:32:50 AM 42.2320 -88.9970 244° Southwest 100 115 2,100 -615 Descending FlightAware ADS-B
Fri 12:33:10 AM 42.2280 -89.0090 246° West 96 110 1,900 -500 Descending FlightAware ADS-B
Fri 12:33:26 AM 42.2250 -89.0180 246° West 103 119 1,800 -486 Descending FlightAware ADS-B
Fri 12:33:47 AM 42.2210 -89.0310 247° West 103 119 1,600 -450 Descending FlightAware ADS-B
Fri 12:34:06 AM 42.2170 -89.0420 244° Southwest 108 124 1,500 -429 Descending FlightAware ADS-B
Fri 12:34:29 AM 42.2120 -89.0560 244° Southwest 109 125 1,300 -615 Descending FlightAware ADS-B
Fri 12:34:45 AM 42.2080 -89.0660 242° Southwest 114 131 1,100 -514 Descending FlightAware ADS-B
Fri 12:35:04 AM 42.2040 -89.0780 246° West 119 137 1,000 -133 Descending FlightAware ADS-B
Fri 12:35:30 AM 42.1990 -89.0930 246° West 119 137 1,000  Level FlightAware ADS-B

Login

Don't have an account? Register now (free) for customized features, flight alerts, and more!